createdAt,value
2023-05-23T00:01:55.084Z,8.40
2023-05-23T00:04:22.565Z,8.80
2023-05-23T00:06:50.744Z,8.75
2023-05-23T00:09:18.403Z,8.98
2023-05-23T00:11:45.944Z,7.97
2023-05-23T00:14:14.992Z,8.55
2023-05-23T00:16:44.046Z,8.32
2023-05-23T00:19:12.580Z,8.70
2023-05-23T00:21:39.758Z,8.82
2023-05-23T00:24:07.392Z,9.02
2023-05-23T00:26:34.647Z,8.50
2023-05-23T00:29:01.902Z,8.25
2023-05-23T00:31:29.132Z,8.30
2023-05-23T00:33:56.316Z,8.88
2023-05-23T00:36:23.687Z,8.68
2023-05-23T00:38:50.845Z,9.48
2023-05-23T00:41:20.921Z,9.25
2023-05-23T00:43:48.776Z,9.20
2023-05-23T00:46:16.472Z,9.07
2023-05-23T00:48:43.762Z,9.68
2023-05-23T00:51:11.081Z,9.98
2023-05-23T00:53:38.488Z,9.57
2023-05-23T00:56:05.975Z,9.43
2023-05-23T00:58:33.227Z,9.68
2023-05-23T01:01:00.538Z,10.20
2023-05-23T01:03:28.772Z,9.73
2023-05-23T01:05:56.723Z,9.15
2023-05-23T01:08:24.206Z,9.77
2023-05-23T01:10:52.263Z,8.98
2023-05-23T01:13:43.143Z,8.82
2023-05-23T01:16:19.562Z,8.88
2023-05-23T01:18:54.342Z,9.35
2023-05-23T01:21:23.025Z,8.52
2023-05-23T01:24:11.419Z,9.15
2023-05-23T01:26:54.348Z,8.80
2023-05-23T01:29:29.604Z,9.10
2023-05-23T01:31:58.296Z,9.55
2023-05-23T01:34:25.530Z,9.52
2023-05-23T01:36:56.486Z,9.25
2023-05-23T01:41:52.652Z,8.05
2023-05-23T01:44:21.412Z,9.20
2023-05-23T01:46:48.771Z,8.25
2023-05-23T01:49:17.378Z,9.60
2023-05-23T01:51:45.595Z,8.65
2023-05-23T01:54:14.374Z,8.73
2023-05-23T01:56:43.000Z,8.73
2023-05-23T01:59:10.360Z,9.35
2023-05-23T02:01:38.623Z,8.10
2023-05-23T02:04:06.726Z,8.43
2023-05-23T02:06:34.248Z,8.25
2023-05-23T02:09:01.488Z,8.23
2023-05-23T02:11:28.714Z,8.35
2023-05-23T02:13:55.911Z,8.25
2023-05-23T02:16:23.293Z,8.48
2023-05-23T02:18:52.793Z,8.60
2023-05-23T02:21:20.152Z,7.95
2023-05-23T02:23:47.380Z,8.98
2023-05-23T02:26:18.019Z,8.40
2023-05-23T02:28:45.283Z,9.13
2023-05-23T02:31:12.551Z,8.85
2023-05-23T02:33:39.855Z,8.85
2023-05-23T02:36:07.278Z,9.32
2023-05-23T02:38:34.472Z,8.90
2023-05-23T02:41:01.693Z,9.20
2023-05-23T02:43:29.662Z,9.27
2023-05-23T02:45:56.934Z,9.85
2023-05-23T02:48:24.095Z,10.00
2023-05-23T02:50:51.421Z,10.27
2023-05-23T02:53:18.662Z,9.95
2023-05-23T02:55:45.982Z,10.20
2023-05-23T02:58:13.256Z,11.07
2023-05-23T03:00:40.387Z,10.73
2023-05-23T03:03:07.865Z,11.20
2023-05-23T03:05:36.425Z,10.85
2023-05-23T03:08:03.642Z,11.07
2023-05-23T03:10:30.753Z,10.57
2023-05-23T03:12:57.958Z,11.18
2023-05-23T03:15:25.230Z,10.93
2023-05-23T03:17:52.427Z,10.35
2023-05-23T03:20:19.676Z,10.93
2023-05-23T03:22:46.904Z,10.52
2023-05-23T03:25:16.254Z,10.77
2023-05-23T03:27:43.420Z,11.00
2023-05-23T03:30:11.039Z,10.68
2023-05-23T03:32:38.441Z,9.20
2023-05-23T03:35:06.325Z,9.90
2023-05-23T03:37:33.530Z,9.93
2023-05-23T03:40:01.034Z,10.30
2023-05-23T03:42:28.622Z,10.10
2023-05-23T03:44:56.692Z,9.90
2023-05-23T03:47:24.293Z,9.25
2023-05-23T03:49:51.700Z,9.98
2023-05-23T03:52:19.013Z,10.35
2023-05-23T03:54:46.731Z,10.30
2023-05-23T03:57:13.960Z,10.18
2023-05-23T03:59:41.454Z,9.30
2023-05-23T04:02:11.760Z,9.68
2023-05-23T04:04:39.620Z,10.77
2023-05-23T04:07:08.415Z,10.90
2023-05-23T04:09:35.670Z,10.30
2023-05-23T04:12:06.068Z,10.23
2023-05-23T04:14:33.706Z,11.38
2023-05-23T04:17:01.532Z,10.13
2023-05-23T04:19:29.874Z,10.43
2023-05-23T04:21:57.369Z,11.95
2023-05-23T04:24:24.622Z,10.55
2023-05-23T04:26:52.050Z,12.15
2023-05-23T04:29:19.311Z,12.05
2023-05-23T04:31:46.724Z,12.93
2023-05-23T04:34:14.903Z,13.57
2023-05-23T04:36:44.710Z,14.05
2023-05-23T04:39:12.543Z,12.23
2023-05-23T04:41:54.479Z,11.43
2023-05-23T04:44:42.883Z,12.50
2023-05-23T04:47:15.878Z,11.85
2023-05-23T04:49:54.963Z,11.27
2023-05-23T04:52:22.211Z,12.60
2023-05-23T04:54:50.197Z,11.77
2023-05-23T04:57:17.593Z,13.18
2023-05-23T04:59:44.976Z,11.80
2023-05-23T05:02:12.137Z,12.00
2023-05-23T05:04:39.422Z,12.43
2023-05-23T05:07:06.747Z,12.45
2023-05-23T05:09:34.759Z,11.27
2023-05-23T05:12:02.049Z,13.20
2023-05-23T05:14:31.218Z,12.60
2023-05-23T05:16:58.578Z,13.65
2023-05-23T05:19:32.949Z,12.45
2023-05-23T05:22:00.284Z,12.35
2023-05-23T05:24:29.013Z,13.20
2023-05-23T05:26:56.168Z,13.10
2023-05-23T05:29:24.431Z,13.30
2023-05-23T05:31:53.300Z,13.10
2023-05-23T05:34:21.183Z,12.57
2023-05-23T05:36:48.493Z,14.00
2023-05-23T05:39:18.075Z,14.23
2023-05-23T05:41:45.353Z,14.00
2023-05-23T05:44:14.611Z,12.98
2023-05-23T05:46:41.951Z,14.43
2023-05-23T05:49:10.306Z,13.27
2023-05-23T05:51:39.303Z,14.60
2023-05-23T05:54:06.727Z,14.73
2023-05-23T05:56:34.065Z,14.02
2023-05-23T05:59:01.833Z,14.40
2023-05-23T06:01:30.778Z,13.63
2023-05-23T06:03:58.552Z,14.93
2023-05-23T06:06:26.383Z,14.88
2023-05-23T06:08:54.297Z,13.85
2023-05-23T06:11:21.403Z,14.82
2023-05-23T06:13:48.586Z,14.02
2023-05-23T06:16:15.794Z,15.05
2023-05-23T06:18:45.015Z,14.95
2023-05-23T06:21:12.535Z,14.93
2023-05-23T06:23:39.695Z,14.18
2023-05-23T06:26:10.600Z,14.98
2023-05-23T06:28:41.992Z,14.02
2023-05-23T06:31:12.249Z,14.38
2023-05-23T06:33:39.524Z,13.57
2023-05-23T06:36:06.880Z,14.57
2023-05-23T06:38:34.085Z,15.15
2023-05-23T06:41:02.397Z,13.38
2023-05-23T06:43:30.658Z,14.52
2023-05-23T06:46:13.992Z,14.40
2023-05-23T06:48:41.174Z,14.80
2023-05-23T06:51:10.410Z,13.85
2023-05-23T06:53:38.021Z,14.35
2023-05-23T06:56:05.444Z,14.60
2023-05-23T06:58:38.956Z,14.18
2023-05-23T07:01:07.160Z,13.82
2023-05-23T07:03:41.517Z,14.80
2023-05-23T07:06:09.960Z,14.10
2023-05-23T07:08:38.665Z,15.82
2023-05-23T07:11:06.775Z,14.25
2023-05-23T07:13:40.269Z,14.70
2023-05-23T07:16:09.623Z,14.52
2023-05-23T07:21:13.559Z,15.05
2023-05-23T07:23:40.789Z,14.93
2023-05-23T07:26:09.729Z,14.90
2023-05-23T07:28:51.391Z,14.90
2023-05-23T07:31:18.727Z,15.73
2023-05-23T07:33:45.960Z,15.15
2023-05-23T07:36:20.019Z,15.00
2023-05-23T07:38:47.318Z,15.55
2023-05-23T07:41:14.957Z,15.50
2023-05-23T07:43:42.095Z,15.63
2023-05-23T07:46:09.698Z,14.45
2023-05-23T07:48:38.333Z,14.50
2023-05-23T07:51:05.939Z,14.38
2023-05-23T07:53:33.773Z,14.32
2023-05-23T07:56:03.906Z,14.68
2023-05-23T07:58:36.227Z,15.90
2023-05-23T08:01:03.568Z,15.60
2023-05-23T08:03:57.619Z,15.20
2023-05-23T08:06:31.799Z,15.80
2023-05-23T08:09:02.017Z,15.45
2023-05-23T08:11:31.267Z,14.93
2023-05-23T08:14:01.256Z,14.98
2023-05-23T08:16:37.806Z,14.73
2023-05-23T08:19:10.410Z,15.30
2023-05-23T08:21:38.373Z,14.13
2023-05-23T08:24:05.818Z,14.68
2023-05-23T08:26:37.469Z,15.02
2023-05-23T08:29:06.642Z,15.60
2023-05-23T08:31:36.623Z,14.32
2023-05-23T08:34:05.084Z,13.80
2023-05-23T08:36:34.169Z,13.77
2023-05-23T08:39:02.062Z,14.55
2023-05-23T08:41:32.367Z,14.20
2023-05-23T08:44:06.278Z,13.93
2023-05-23T08:46:42.909Z,13.98
2023-05-23T08:49:10.790Z,13.40
2023-05-23T08:51:38.492Z,13.38
2023-05-23T08:54:14.910Z,12.90
2023-05-23T08:56:43.908Z,13.40
2023-05-23T08:59:12.896Z,13.95
2023-05-23T09:01:42.155Z,12.88
2023-05-23T09:04:12.209Z,14.38
2023-05-23T09:06:48.208Z,14.88
2023-05-23T09:09:15.515Z,14.38
2023-05-23T09:11:45.798Z,14.85
2023-05-23T09:14:14.682Z,13.23
2023-05-23T09:16:46.864Z,13.48
2023-05-23T09:19:16.490Z,12.93
2023-05-23T09:21:53.311Z,13.23
2023-05-23T09:24:33.915Z,14.43
2023-05-23T09:27:01.764Z,14.15
2023-05-23T09:29:29.226Z,13.30
2023-05-23T09:32:19.799Z,13.38
2023-05-23T09:35:03.220Z,13.60
2023-05-23T09:37:32.924Z,12.90
2023-05-23T09:40:01.929Z,14.20
2023-05-23T09:42:34.177Z,13.77
2023-05-23T09:45:03.987Z,13.93
2023-05-23T09:47:32.347Z,12.90
2023-05-23T09:49:59.505Z,12.85
2023-05-23T09:52:27.088Z,14.65
2023-05-23T09:54:54.582Z,14.55
2023-05-23T09:57:23.280Z,13.57
2023-05-23T09:59:54.530Z,13.50
2023-05-23T10:02:42.227Z,12.90
2023-05-23T10:05:17.137Z,12.50
2023-05-23T10:07:45.235Z,12.70
2023-05-23T10:10:13.428Z,12.50
2023-05-23T10:12:53.696Z,11.85
2023-05-23T10:15:23.875Z,11.50
2023-05-23T10:18:01.111Z,12.57
2023-05-23T10:20:34.036Z,12.88
2023-05-23T10:23:02.478Z,12.63
2023-05-23T10:25:29.704Z,12.07
2023-05-23T10:28:03.879Z,11.82
2023-05-23T10:30:32.273Z,11.80
2023-05-23T10:33:00.643Z,10.98
2023-05-23T10:36:09.171Z,9.45
2023-05-23T10:38:48.379Z,6.50
2023-05-23T10:41:18.642Z,6.40
2023-05-23T10:44:09.979Z,6.20
2023-05-23T10:46:58.583Z,6.38
2023-05-23T10:49:46.988Z,6.45
2023-05-23T10:52:16.769Z,6.95
2023-05-23T10:54:49.290Z,8.63
2023-05-23T10:57:18.863Z,8.00
2023-05-23T10:59:47.030Z,9.30
2023-05-23T11:02:16.051Z,8.77
2023-05-23T11:04:44.748Z,9.13
2023-05-23T11:07:29.821Z,8.68
2023-05-23T11:10:14.130Z,9.38
2023-05-23T11:12:44.245Z,8.82
2023-05-23T11:15:17.364Z,8.80
2023-05-23T11:17:55.428Z,9.63
2023-05-23T11:20:27.445Z,9.68
2023-05-23T11:23:05.523Z,9.90
2023-05-23T11:25:52.098Z,8.85
2023-05-23T11:28:20.068Z,9.65
2023-05-23T11:30:50.926Z,8.98
2023-05-23T11:33:18.267Z,9.55
2023-05-23T11:35:47.734Z,9.93
2023-05-23T11:38:18.358Z,9.30
2023-05-23T11:43:18.004Z,9.82
2023-05-23T11:45:48.037Z,9.23
2023-05-23T11:48:16.917Z,9.45
2023-05-23T11:50:52.185Z,9.48
2023-05-23T11:53:21.783Z,9.88
2023-05-23T11:56:01.627Z,9.10
2023-05-23T11:58:31.114Z,9.20
2023-05-23T12:01:03.339Z,9.50
2023-05-23T12:03:34.474Z,9.43
2023-05-23T12:06:04.255Z,10.15
2023-05-23T12:08:31.384Z,8.95
2023-05-23T12:11:00.156Z,8.90
2023-05-23T12:13:30.429Z,9.52
2023-05-23T12:15:59.866Z,8.85
2023-05-23T12:18:32.789Z,9.23
2023-05-23T12:21:02.968Z,9.57
2023-05-23T12:23:31.772Z,9.73
2023-05-23T12:26:00.524Z,8.68
2023-05-23T12:28:38.912Z,8.27
2023-05-23T12:31:12.842Z,8.43
2023-05-23T12:33:41.300Z,9.32
2023-05-23T12:36:08.535Z,8.80
2023-05-23T12:38:38.065Z,8.57
2023-05-23T12:41:22.013Z,9.25
2023-05-23T12:43:51.916Z,8.45
2023-05-23T12:46:20.448Z,9.15
2023-05-23T12:48:47.721Z,8.65
2023-05-23T12:51:15.394Z,8.63
2023-05-23T12:53:42.809Z,7.97
2023-05-23T12:56:09.941Z,9.15
2023-05-23T12:58:37.220Z,8.20
2023-05-23T13:01:04.522Z,8.82
2023-05-23T13:03:31.927Z,8.65
2023-05-23T13:05:59.316Z,7.70
2023-05-23T13:08:29.889Z,8.02
2023-05-23T13:10:57.648Z,8.43
2023-05-23T13:13:26.768Z,7.80
2023-05-23T13:15:54.100Z,8.13
2023-05-23T13:18:21.404Z,7.80
2023-05-23T13:20:48.585Z,8.27
2023-05-23T13:23:15.970Z,7.53
2023-05-23T13:25:43.238Z,7.63
2023-05-23T13:28:10.600Z,7.97
2023-05-23T13:30:37.811Z,7.40
2023-05-23T13:33:05.189Z,7.70
2023-05-23T13:35:32.432Z,7.35
2023-05-23T13:37:59.610Z,7.10
2023-05-23T13:40:26.735Z,7.63
2023-05-23T13:42:53.941Z,7.47
2023-05-23T13:45:22.990Z,6.90
2023-05-23T13:47:50.369Z,6.35
2023-05-23T13:50:17.836Z,6.88
2023-05-23T13:52:48.253Z,6.78
2023-05-23T13:55:17.285Z,6.78
2023-05-23T13:57:44.806Z,7.05
2023-05-23T14:00:12.605Z,7.07
2023-05-23T14:02:39.910Z,6.63
2023-05-23T14:05:08.052Z,7.32
2023-05-23T14:07:35.449Z,7.47
2023-05-23T14:10:02.733Z,7.15
2023-05-23T14:12:29.872Z,7.38
2023-05-23T14:14:57.066Z,6.97
2023-05-23T14:17:24.288Z,7.22
2023-05-23T14:19:51.759Z,7.35
2023-05-23T14:22:18.909Z,7.07
2023-05-23T14:24:46.167Z,7.40
2023-05-23T14:27:13.353Z,7.22
2023-05-23T14:29:40.503Z,7.53
2023-05-23T14:32:07.724Z,7.57
2023-05-23T14:34:34.886Z,7.55
2023-05-23T14:37:02.012Z,6.88
2023-05-23T14:39:29.377Z,7.10
2023-05-23T14:41:56.739Z,6.90
2023-05-23T14:44:23.991Z,7.32
2023-05-23T14:46:51.482Z,7.32
2023-05-23T14:49:18.734Z,6.95
2023-05-23T14:51:51.116Z,7.07
2023-05-23T14:54:19.351Z,6.90
2023-05-23T14:56:46.672Z,6.88
2023-05-23T14:59:14.027Z,7.18
2023-05-23T15:01:41.636Z,7.05
2023-05-23T15:04:09.880Z,7.30
2023-05-23T15:06:39.075Z,7.13
2023-05-23T15:09:07.456Z,6.82
2023-05-23T15:11:42.274Z,7.03
2023-05-23T15:14:09.568Z,6.78
2023-05-23T15:16:37.398Z,7.53
2023-05-23T15:19:05.577Z,7.32
2023-05-23T15:21:32.858Z,7.53
2023-05-23T15:24:00.147Z,6.93
2023-05-23T15:26:27.510Z,6.90
2023-05-23T15:28:54.995Z,6.38
2023-05-23T15:31:22.376Z,6.60
2023-05-23T15:33:49.621Z,6.90
2023-05-23T15:36:16.800Z,6.80
2023-05-23T15:38:44.383Z,6.72
2023-05-23T15:41:11.813Z,6.45
2023-05-23T15:43:38.984Z,6.78
2023-05-23T15:46:06.281Z,6.63
2023-05-23T15:48:33.442Z,6.00
2023-05-23T15:51:00.669Z,6.88
2023-05-23T15:53:28.438Z,6.40
2023-05-23T15:55:56.919Z,5.40
2023-05-23T15:58:24.094Z,5.78
2023-05-23T16:00:51.352Z,5.85
2023-05-23T16:03:18.484Z,5.78
2023-05-23T16:05:46.123Z,5.70
2023-05-23T16:08:13.273Z,5.32
2023-05-23T16:10:40.552Z,4.97
2023-05-23T16:13:08.955Z,5.00
2023-05-23T16:15:36.112Z,4.30
2023-05-23T16:18:03.857Z,5.00
2023-05-23T16:20:31.133Z,4.50
2023-05-23T16:22:58.288Z,4.07
2023-05-23T16:25:25.541Z,3.95
2023-05-23T16:27:52.690Z,4.03
2023-05-23T16:30:20.207Z,3.80
2023-05-23T16:32:47.378Z,3.20
2023-05-23T16:35:14.608Z,3.40
2023-05-23T16:37:41.795Z,3.40
2023-05-23T16:40:09.209Z,3.10
2023-05-23T16:42:36.846Z,3.00
2023-05-23T16:45:04.802Z,2.88
2023-05-23T16:47:32.288Z,2.70
2023-05-23T16:49:59.536Z,2.38
2023-05-23T16:52:26.745Z,2.80
2023-05-23T16:54:55.692Z,2.47
2023-05-23T16:57:22.947Z,2.35
2023-05-23T16:59:50.137Z,2.40
2023-05-23T17:02:17.338Z,2.22
2023-05-23T17:04:45.019Z,2.60
2023-05-23T17:07:12.256Z,2.75
2023-05-23T17:09:39.749Z,2.53
2023-05-23T17:12:07.420Z,2.33
2023-05-23T17:14:34.700Z,2.40
2023-05-23T17:17:03.415Z,2.70
2023-05-23T17:19:30.753Z,2.63
2023-05-23T17:22:00.955Z,2.95
2023-05-23T17:24:28.522Z,2.70
2023-05-23T17:26:55.665Z,2.70
2023-05-23T17:29:22.822Z,3.00
2023-05-23T17:31:50.011Z,2.60
2023-05-23T17:37:22.782Z,2.92
2023-05-23T17:39:59.479Z,3.17
2023-05-23T17:46:34.137Z,3.15
2023-05-23T17:49:07.852Z,2.75
2023-05-23T17:51:39.259Z,3.17
2023-05-23T17:54:07.195Z,3.13
2023-05-23T17:56:34.422Z,2.97
2023-05-23T17:59:15.080Z,3.20
2023-05-23T18:01:53.254Z,2.90
2023-05-23T18:04:24.511Z,3.03
2023-05-23T18:06:51.928Z,2.92
2023-05-23T18:09:19.766Z,3.13
2023-05-23T18:11:47.198Z,3.17
2023-05-23T18:14:14.751Z,2.67
2023-05-23T18:16:42.251Z,2.65
2023-05-23T18:19:09.768Z,2.90
2023-05-23T18:21:45.250Z,2.83
2023-05-23T18:24:18.296Z,2.90
2023-05-23T18:26:46.321Z,3.08
2023-05-23T18:29:31.723Z,3.13
2023-05-23T18:31:59.021Z,2.78
2023-05-23T18:34:29.428Z,3.50
2023-05-23T18:36:56.778Z,3.00
2023-05-23T18:39:24.241Z,3.03
2023-05-23T18:41:57.924Z,3.20
2023-05-23T18:44:25.361Z,3.08
2023-05-23T18:46:52.827Z,2.90
2023-05-23T18:49:20.222Z,3.30
2023-05-23T18:51:47.766Z,3.38
2023-05-23T18:54:15.176Z,3.20
2023-05-23T18:56:59.018Z,2.97
2023-05-23T18:59:27.049Z,3.42
2023-05-23T19:01:54.415Z,3.15
2023-05-23T19:04:31.266Z,2.97
2023-05-23T19:06:58.638Z,3.13
2023-05-23T19:09:28.764Z,3.53
2023-05-23T19:12:04.473Z,3.55
2023-05-23T19:14:31.797Z,3.70
2023-05-23T19:16:59.913Z,3.30
2023-05-23T19:19:30.038Z,3.75
2023-05-23T19:21:59.047Z,3.42
2023-05-23T19:24:27.502Z,3.97
2023-05-23T19:26:56.209Z,4.00
2023-05-23T19:29:23.703Z,3.65
2023-05-23T19:31:51.034Z,3.47
2023-05-23T19:34:18.351Z,3.83
2023-05-23T19:36:45.731Z,3.30
2023-05-23T19:39:13.065Z,3.80
2023-05-23T19:41:48.879Z,3.40
2023-05-23T19:44:16.270Z,3.33
2023-05-23T19:46:43.742Z,3.65
2023-05-23T19:49:12.016Z,3.60
2023-05-23T19:51:39.338Z,3.53
2023-05-23T19:54:06.738Z,3.50
2023-05-23T19:56:35.896Z,3.35
2023-05-23T19:59:03.295Z,3.25
2023-05-23T20:01:34.170Z,3.67
2023-05-23T20:04:13.254Z,3.80
2023-05-23T20:06:58.917Z,3.88
2023-05-23T20:09:28.889Z,4.05
2023-05-23T20:11:59.388Z,4.05
2023-05-23T20:16:56.592Z,4.05
2023-05-23T20:19:24.345Z,3.83
2023-05-23T20:22:21.806Z,3.65
2023-05-23T20:24:49.127Z,3.80
2023-05-23T20:27:18.046Z,3.88
2023-05-23T20:29:51.616Z,3.63
2023-05-23T20:32:28.480Z,3.53
2023-05-23T20:35:18.650Z,4.28
2023-05-23T20:37:51.316Z,4.13
2023-05-23T20:40:18.713Z,4.10
2023-05-23T20:42:46.250Z,3.85
2023-05-23T20:45:14.054Z,3.75
2023-05-23T20:47:42.356Z,3.72
2023-05-23T20:50:11.866Z,3.70
2023-05-23T20:52:41.414Z,3.83
2023-05-23T20:55:10.008Z,3.67
2023-05-23T20:57:37.834Z,3.95
2023-05-23T21:00:13.123Z,4.32
2023-05-23T21:02:41.708Z,3.90
2023-05-23T21:05:10.740Z,4.05
2023-05-23T21:07:38.491Z,4.25
2023-05-23T21:10:06.480Z,4.28
2023-05-23T21:12:33.977Z,3.85
2023-05-23T21:15:17.689Z,3.72
2023-05-23T21:17:45.768Z,4.32
2023-05-23T21:20:13.504Z,4.40
2023-05-23T21:22:41.125Z,4.25
2023-05-23T21:25:08.859Z,4.40
2023-05-23T21:27:36.062Z,4.20
2023-05-23T21:30:05.256Z,4.28
2023-05-23T21:32:33.132Z,4.25
2023-05-23T21:35:00.497Z,4.00
2023-05-23T21:37:30.467Z,4.22
2023-05-23T21:39:57.775Z,3.78
2023-05-23T21:42:25.619Z,4.10
2023-05-23T21:44:52.961Z,3.80
2023-05-23T21:47:21.387Z,3.63
2023-05-23T21:49:48.821Z,3.70
2023-05-23T21:52:16.509Z,3.33
2023-05-23T21:54:45.971Z,3.67
2023-05-23T21:57:13.403Z,3.55
2023-05-23T21:59:41.671Z,3.45
2023-05-23T22:02:09.010Z,3.85
2023-05-23T22:04:37.026Z,3.83
2023-05-23T22:07:07.075Z,3.58
2023-05-23T22:09:34.591Z,3.30
2023-05-23T22:12:05.655Z,3.53
2023-05-23T22:14:36.277Z,3.35
2023-05-23T22:19:31.855Z,3.53
2023-05-23T22:21:59.223Z,3.25
2023-05-23T22:24:32.929Z,3.15
2023-05-23T22:27:03.349Z,3.10
2023-05-23T22:29:31.060Z,3.67
2023-05-23T22:31:58.437Z,3.20
2023-05-23T22:34:25.800Z,3.05
2023-05-23T22:36:53.189Z,3.22
2023-05-23T22:39:20.488Z,3.17
2023-05-23T22:41:56.028Z,2.67
2023-05-23T22:44:28.041Z,3.15
2023-05-23T22:47:24.292Z,3.33
2023-05-23T22:50:04.304Z,2.78
2023-05-23T22:52:37.109Z,2.75
2023-05-23T22:55:08.404Z,3.15
2023-05-23T22:57:40.835Z,2.60
2023-05-23T23:00:11.391Z,2.97
2023-05-23T23:02:38.955Z,2.50
2023-05-23T23:05:06.832Z,2.50
2023-05-23T23:07:34.218Z,2.50
2023-05-23T23:10:01.895Z,2.60
2023-05-23T23:12:29.372Z,2.78
2023-05-23T23:14:56.773Z,2.33
2023-05-23T23:17:24.171Z,2.63
2023-05-23T23:19:51.596Z,2.20
2023-05-23T23:22:21.528Z,2.58
2023-05-23T23:24:55.822Z,2.20
2023-05-23T23:27:30.974Z,2.13
2023-05-23T23:29:59.198Z,2.08
2023-05-23T23:32:26.849Z,2.30
2023-05-23T23:34:54.198Z,2.22
2023-05-23T23:37:21.726Z,2.50
2023-05-23T23:39:49.057Z,2.33
2023-05-23T23:45:04.596Z,2.10
2023-05-23T23:47:47.839Z,1.88
2023-05-23T23:50:15.494Z,1.80
2023-05-23T23:52:45.983Z,2.10
2023-05-23T23:55:13.430Z,2.13
2023-05-23T23:57:41.077Z,2.10
